sensor_id;sensor_type;location;lat;lon;timestamp;P1;durP1;ratioP1;P2;durP2;ratioP2
27804;SDS011;15183;51.350;11.102;2024-01-15T00:00:04;21.42;;;11.55;;
27804;SDS011;15183;51.350;11.102;2024-01-15T00:02:31;22.75;;;12.00;;
27804;SDS011;15183;51.350;11.102;2024-01-15T00:04:57;19.25;;;10.90;;
27804;SDS011;15183;51.350;11.102;2024-01-15T00:07:24;20.92;;;11.23;;
27804;SDS011;15183;51.350;11.102;2024-01-15T00:09:50;20.17;;;11.73;;
27804;SDS011;15183;51.350;11.102;2024-01-15T00:12:17;22.08;;;12.48;;
27804;SDS011;15183;51.350;11.102;2024-01-15T00:14:43;38.00;;;17.52;;
27804;SDS011;15183;51.350;11.102;2024-01-15T00:17:10;35.92;;;17.38;;
27804;SDS011;15183;51.350;11.102;2024-01-15T00:19:36;30.67;;;15.70;;
27804;SDS011;15183;51.350;11.102;2024-01-15T00:22:03;41.08;;;18.15;;
27804;SDS011;15183;51.350;11.102;2024-01-15T00:24:30;44.72;;;19.15;;
27804;SDS011;15183;51.350;11.102;2024-01-15T00:26:56;53.70;;;21.45;;
27804;SDS011;15183;51.350;11.102;2024-01-15T00:29:23;41.90;;;18.38;;
27804;SDS011;15183;51.350;11.102;2024-01-15T00:31:49;48.00;;;20.05;;
27804;SDS011;15183;51.350;11.102;2024-01-15T00:34:15;61.75;;;23.45;;
27804;SDS011;15183;51.350;11.102;2024-01-15T00:36:42;40.03;;;17.50;;
27804;SDS011;15183;51.350;11.102;2024-01-15T00:39:08;68.60;;;24.52;;
27804;SDS011;15183;51.350;11.102;2024-01-15T00:41:36;46.28;;;19.27;;
27804;SDS011;15183;51.350;11.102;2024-01-15T00:44:02;48.35;;;19.98;;
27804;SDS011;15183;51.350;11.102;2024-01-15T00:46:29;63.92;;;22.48;;
27804;SDS011;15183;51.350;11.102;2024-01-15T00:48:55;63.47;;;23.05;;
27804;SDS011;15183;51.350;11.102;2024-01-15T00:51:22;40.13;;;17.27;;
27804;SDS011;15183;51.350;11.102;2024-01-15T00:53:49;52.53;;;20.08;;
27804;SDS011;15183;51.350;11.102;2024-01-15T00:56:15;61.58;;;23.58;;
27804;SDS011;15183;51.350;11.102;2024-01-15T00:58:41;46.47;;;18.83;;
27804;SDS011;15183;51.350;11.102;2024-01-15T01:03:54;29.58;;;15.07;;
27804;SDS011;15183;51.350;11.102;2024-01-15T01:06:20;25.30;;;13.73;;
27804;SDS011;15183;51.350;11.102;2024-01-15T01:08:47;21.05;;;11.63;;
27804;SDS011;15183;51.350;11.102;2024-01-15T01:11:14;20.20;;;10.98;;
27804;SDS011;15183;51.350;11.102;2024-01-15T01:13:41;17.90;;;10.70;;
27804;SDS011;15183;51.350;11.102;2024-01-15T01:16:10;21.77;;;12.00;;
27804;SDS011;15183;51.350;11.102;2024-01-15T01:18:37;17.88;;;10.02;;
27804;SDS011;15183;51.350;11.102;2024-01-15T01:21:03;17.30;;;10.18;;
27804;SDS011;15183;51.350;11.102;2024-01-15T01:23:30;20.05;;;11.40;;
27804;SDS011;15183;51.350;11.102;2024-01-15T01:25:56;16.73;;;10.25;;
27804;SDS011;15183;51.350;11.102;2024-01-15T01:28:24;18.70;;;10.45;;
27804;SDS011;15183;51.350;11.102;2024-01-15T01:30:51;20.52;;;11.50;;
27804;SDS011;15183;51.350;11.102;2024-01-15T01:33:17;19.23;;;11.07;;
27804;SDS011;15183;51.350;11.102;2024-01-15T01:35:43;22.65;;;12.18;;
27804;SDS011;15183;51.350;11.102;2024-01-15T01:38:10;17.83;;;10.52;;
27804;SDS011;15183;51.350;11.102;2024-01-15T01:40:38;20.88;;;11.35;;
27804;SDS011;15183;51.350;11.102;2024-01-15T01:43:05;19.08;;;11.02;;
27804;SDS011;15183;51.350;11.102;2024-01-15T01:45:31;18.38;;;10.15;;
27804;SDS011;15183;51.350;11.102;2024-01-15T01:47:58;17.48;;;10.45;;
27804;SDS011;15183;51.350;11.102;2024-01-15T01:50:28;18.25;;;10.27;;
27804;SDS011;15183;51.350;11.102;2024-01-15T01:52:57;19.35;;;10.63;;
27804;SDS011;15183;51.350;11.102;2024-01-15T01:55:24;17.42;;;10.48;;
27804;SDS011;15183;51.350;11.102;2024-01-15T01:57:53;19.40;;;10.25;;
27804;SDS011;15183;51.350;11.102;2024-01-15T02:00:21;18.85;;;10.63;;
27804;SDS011;15183;51.350;11.102;2024-01-15T02:02:48;18.73;;;9.90;;
27804;SDS011;15183;51.350;11.102;2024-01-15T02:05:14;18.88;;;10.93;;
27804;SDS011;15183;51.350;11.102;2024-01-15T02:07:46;20.17;;;10.88;;
27804;SDS011;15183;51.350;11.102;2024-01-15T02:10:16;18.23;;;9.55;;
27804;SDS011;15183;51.350;11.102;2024-01-15T02:12:42;19.58;;;10.65;;
27804;SDS011;15183;51.350;11.102;2024-01-15T02:15:10;17.35;;;10.60;;
27804;SDS011;15183;51.350;11.102;2024-01-15T02:17:58;19.70;;;10.43;;
27804;SDS011;15183;51.350;11.102;2024-01-15T02:20:29;20.30;;;10.68;;
27804;SDS011;15183;51.350;11.102;2024-01-15T02:23:16;15.77;;;9.27;;
27804;SDS011;15183;51.350;11.102;2024-01-15T02:25:46;16.23;;;9.05;;
27804;SDS011;15183;51.350;11.102;2024-01-15T02:28:13;17.90;;;9.77;;
27804;SDS011;15183;51.350;11.102;2024-01-15T02:30:42;17.63;;;9.65;;
27804;SDS011;15183;51.350;11.102;2024-01-15T02:33:09;16.38;;;9.15;;
27804;SDS011;15183;51.350;11.102;2024-01-15T02:35:37;15.45;;;8.98;;
27804;SDS011;15183;51.350;11.102;2024-01-15T02:38:04;18.25;;;9.38;;
27804;SDS011;15183;51.350;11.102;2024-01-15T02:40:31;15.60;;;9.45;;
27804;SDS011;15183;51.350;11.102;2024-01-15T02:42:58;17.77;;;8.68;;
27804;SDS011;15183;51.350;11.102;2024-01-15T02:45:25;16.15;;;9.18;;
27804;SDS011;15183;51.350;11.102;2024-01-15T02:47:51;17.80;;;9.90;;
27804;SDS011;15183;51.350;11.102;2024-01-15T02:50:18;16.77;;;8.82;;
27804;SDS011;15183;51.350;11.102;2024-01-15T02:52:44;17.02;;;8.98;;
27804;SDS011;15183;51.350;11.102;2024-01-15T02:55:11;17.75;;;9.75;;
27804;SDS011;15183;51.350;11.102;2024-01-15T02:57:37;19.17;;;9.65;;
27804;SDS011;15183;51.350;11.102;2024-01-15T03:00:03;17.08;;;8.60;;
27804;SDS011;15183;51.350;11.102;2024-01-15T03:02:31;20.40;;;10.13;;
27804;SDS011;15183;51.350;11.102;2024-01-15T03:04:57;18.08;;;9.02;;
27804;SDS011;15183;51.350;11.102;2024-01-15T03:07:23;14.90;;;8.63;;
27804;SDS011;15183;51.350;11.102;2024-01-15T03:09:50;14.23;;;8.18;;
27804;SDS011;15183;51.350;11.102;2024-01-15T03:12:16;15.18;;;8.73;;
27804;SDS011;15183;51.350;11.102;2024-01-15T03:14:43;16.20;;;9.18;;
27804;SDS011;15183;51.350;11.102;2024-01-15T03:17:10;14.15;;;7.65;;
27804;SDS011;15183;51.350;11.102;2024-01-15T03:19:37;15.60;;;8.23;;
27804;SDS011;15183;51.350;11.102;2024-01-15T03:22:04;15.45;;;8.30;;
27804;SDS011;15183;51.350;11.102;2024-01-15T03:24:31;15.60;;;8.48;;
27804;SDS011;15183;51.350;11.102;2024-01-15T03:26:57;13.00;;;7.63;;
27804;SDS011;15183;51.350;11.102;2024-01-15T03:29:24;14.88;;;7.97;;
27804;SDS011;15183;51.350;11.102;2024-01-15T03:31:52;17.13;;;7.95;;
27804;SDS011;15183;51.350;11.102;2024-01-15T03:34:18;13.25;;;7.20;;
27804;SDS011;15183;51.350;11.102;2024-01-15T03:36:45;11.98;;;6.93;;
27804;SDS011;15183;51.350;11.102;2024-01-15T03:39:11;12.45;;;7.32;;
27804;SDS011;15183;51.350;11.102;2024-01-15T03:41:38;14.40;;;8.23;;
27804;SDS011;15183;51.350;11.102;2024-01-15T03:44:04;10.45;;;6.85;;
27804;SDS011;15183;51.350;11.102;2024-01-15T03:46:32;12.77;;;7.32;;
27804;SDS011;15183;51.350;11.102;2024-01-15T03:48:58;15.93;;;7.25;;
27804;SDS011;15183;51.350;11.102;2024-01-15T03:51:25;13.05;;;6.95;;
27804;SDS011;15183;51.350;11.102;2024-01-15T03:53:51;11.00;;;6.57;;
27804;SDS011;15183;51.350;11.102;2024-01-15T03:56:18;11.35;;;6.32;;
27804;SDS011;15183;51.350;11.102;2024-01-15T03:58:44;15.25;;;7.38;;
27804;SDS011;15183;51.350;11.102;2024-01-15T04:01:10;13.10;;;7.00;;
27804;SDS011;15183;51.350;11.102;2024-01-15T04:03:37;12.05;;;6.50;;
27804;SDS011;15183;51.350;11.102;2024-01-15T04:06:04;13.20;;;6.75;;
27804;SDS011;15183;51.350;11.102;2024-01-15T04:08:30;11.73;;;7.45;;
27804;SDS011;15183;51.350;11.102;2024-01-15T04:10:58;13.55;;;7.05;;
27804;SDS011;15183;51.350;11.102;2024-01-15T04:13:24;14.02;;;7.95;;
27804;SDS011;15183;51.350;11.102;2024-01-15T04:15:51;12.23;;;7.70;;
27804;SDS011;15183;51.350;11.102;2024-01-15T04:18:20;12.00;;;7.43;;
27804;SDS011;15183;51.350;11.102;2024-01-15T04:20:49;14.02;;;7.15;;
27804;SDS011;15183;51.350;11.102;2024-01-15T04:23:15;13.73;;;6.63;;
27804;SDS011;15183;51.350;11.102;2024-01-15T04:25:44;12.63;;;7.15;;
27804;SDS011;15183;51.350;11.102;2024-01-15T04:28:11;12.90;;;7.45;;
27804;SDS011;15183;51.350;11.102;2024-01-15T04:30:41;12.07;;;6.93;;
27804;SDS011;15183;51.350;11.102;2024-01-15T04:33:07;11.88;;;6.75;;
27804;SDS011;15183;51.350;11.102;2024-01-15T04:35:34;11.13;;;6.55;;
27804;SDS011;15183;51.350;11.102;2024-01-15T04:38:00;11.85;;;7.07;;
27804;SDS011;15183;51.350;11.102;2024-01-15T04:40:27;13.20;;;6.28;;
27804;SDS011;15183;51.350;11.102;2024-01-15T04:42:54;13.48;;;6.75;;
27804;SDS011;15183;51.350;11.102;2024-01-15T04:45:20;12.77;;;6.45;;
27804;SDS011;15183;51.350;11.102;2024-01-15T04:47:48;12.48;;;6.55;;
27804;SDS011;15183;51.350;11.102;2024-01-15T04:50:15;12.80;;;6.95;;
27804;SDS011;15183;51.350;11.102;2024-01-15T04:52:43;12.13;;;6.85;;
27804;SDS011;15183;51.350;11.102;2024-01-15T04:55:10;11.15;;;6.68;;
27804;SDS011;15183;51.350;11.102;2024-01-15T04:57:36;11.93;;;6.43;;
27804;SDS011;15183;51.350;11.102;2024-01-15T05:00:03;9.65;;;6.43;;
27804;SDS011;15183;51.350;11.102;2024-01-15T05:02:31;11.93;;;6.32;;
27804;SDS011;15183;51.350;11.102;2024-01-15T05:04:57;9.43;;;5.78;;
27804;SDS011;15183;51.350;11.102;2024-01-15T05:07:23;9.48;;;6.00;;
27804;SDS011;15183;51.350;11.102;2024-01-15T05:09:50;9.65;;;5.45;;
27804;SDS011;15183;51.350;11.102;2024-01-15T05:12:16;11.13;;;6.15;;
27804;SDS011;15183;51.350;11.102;2024-01-15T05:14:43;10.25;;;6.10;;
27804;SDS011;15183;51.350;11.102;2024-01-15T05:17:11;14.98;;;6.18;;
27804;SDS011;15183;51.350;11.102;2024-01-15T05:19:37;10.50;;;5.85;;
27804;SDS011;15183;51.350;11.102;2024-01-15T05:22:03;9.93;;;5.63;;
27804;SDS011;15183;51.350;11.102;2024-01-15T05:24:30;9.20;;;5.53;;
27804;SDS011;15183;51.350;11.102;2024-01-15T05:26:56;10.27;;;5.72;;
27804;SDS011;15183;51.350;11.102;2024-01-15T05:29:22;10.75;;;5.65;;
27804;SDS011;15183;51.350;11.102;2024-01-15T05:31:49;15.50;;;5.85;;
27804;SDS011;15183;51.350;11.102;2024-01-15T05:34:17;11.05;;;5.35;;
27804;SDS011;15183;51.350;11.102;2024-01-15T05:36:43;10.35;;;5.60;;
27804;SDS011;15183;51.350;11.102;2024-01-15T05:39:12;13.45;;;6.05;;
27804;SDS011;15183;51.350;11.102;2024-01-15T05:41:41;9.63;;;5.55;;
27804;SDS011;15183;51.350;11.102;2024-01-15T05:44:08;9.85;;;5.47;;
27804;SDS011;15183;51.350;11.102;2024-01-15T05:46:35;12.20;;;5.80;;
27804;SDS011;15183;51.350;11.102;2024-01-15T05:49:01;11.57;;;5.72;;
27804;SDS011;15183;51.350;11.102;2024-01-15T05:51:28;12.85;;;5.85;;
27804;SDS011;15183;51.350;11.102;2024-01-15T05:53:54;9.45;;;5.43;;
27804;SDS011;15183;51.350;11.102;2024-01-15T05:56:21;9.77;;;5.32;;
27804;SDS011;15183;51.350;11.102;2024-01-15T05:58:50;10.63;;;5.28;;
27804;SDS011;15183;51.350;11.102;2024-01-15T06:01:17;9.07;;;5.15;;
27804;SDS011;15183;51.350;11.102;2024-01-15T06:03:43;12.20;;;4.97;;
27804;SDS011;15183;51.350;11.102;2024-01-15T06:06:10;9.93;;;5.47;;
27804;SDS011;15183;51.350;11.102;2024-01-15T06:08:37;14.20;;;7.30;;
27804;SDS011;15183;51.350;11.102;2024-01-15T06:11:04;10.93;;;6.00;;
27804;SDS011;15183;51.350;11.102;2024-01-15T06:13:32;9.65;;;5.43;;
27804;SDS011;15183;51.350;11.102;2024-01-15T06:15:58;9.88;;;5.65;;
27804;SDS011;15183;51.350;11.102;2024-01-15T06:18:25;7.38;;;4.75;;
27804;SDS011;15183;51.350;11.102;2024-01-15T06:20:51;9.40;;;4.60;;
27804;SDS011;15183;51.350;11.102;2024-01-15T06:23:18;13.45;;;5.55;;
27804;SDS011;15183;51.350;11.102;2024-01-15T06:25:44;10.95;;;5.30;;
27804;SDS011;15183;51.350;11.102;2024-01-15T06:28:12;10.55;;;4.95;;
27804;SDS011;15183;51.350;11.102;2024-01-15T06:30:38;9.18;;;4.80;;
27804;SDS011;15183;51.350;11.102;2024-01-15T06:33:04;6.47;;;4.10;;
27804;SDS011;15183;51.350;11.102;2024-01-15T06:35:31;10.30;;;4.78;;
27804;SDS011;15183;51.350;11.102;2024-01-15T06:37:57;6.72;;;4.55;;
27804;SDS011;15183;51.350;11.102;2024-01-15T06:40:23;7.70;;;4.55;;
27804;SDS011;15183;51.350;11.102;2024-01-15T06:42:50;9.38;;;5.40;;
27804;SDS011;15183;51.350;11.102;2024-01-15T06:45:16;8.57;;;5.75;;
27804;SDS011;15183;51.350;11.102;2024-01-15T06:47:43;11.43;;;5.60;;
27804;SDS011;15183;51.350;11.102;2024-01-15T06:50:09;15.10;;;7.78;;
27804;SDS011;15183;51.350;11.102;2024-01-15T06:52:36;13.45;;;6.63;;
27804;SDS011;15183;51.350;11.102;2024-01-15T06:55:02;12.95;;;6.65;;
27804;SDS011;15183;51.350;11.102;2024-01-15T06:57:29;10.57;;;6.28;;
27804;SDS011;15183;51.350;11.102;2024-01-15T06:59:55;11.27;;;5.90;;
27804;SDS011;15183;51.350;11.102;2024-01-15T07:02:22;10.85;;;6.07;;
27804;SDS011;15183;51.350;11.102;2024-01-15T07:04:48;9.88;;;6.05;;
27804;SDS011;15183;51.350;11.102;2024-01-15T07:07:15;12.98;;;5.75;;
27804;SDS011;15183;51.350;11.102;2024-01-15T07:09:41;11.60;;;6.28;;
27804;SDS011;15183;51.350;11.102;2024-01-15T07:12:08;11.00;;;5.57;;
27804;SDS011;15183;51.350;11.102;2024-01-15T07:14:34;9.55;;;6.05;;
27804;SDS011;15183;51.350;11.102;2024-01-15T07:17:01;10.93;;;6.65;;
27804;SDS011;15183;51.350;11.102;2024-01-15T07:19:27;10.32;;;5.45;;
27804;SDS011;15183;51.350;11.102;2024-01-15T07:21:53;12.63;;;5.53;;
27804;SDS011;15183;51.350;11.102;2024-01-15T07:24:20;10.98;;;5.72;;
27804;SDS011;15183;51.350;11.102;2024-01-15T07:26:46;11.30;;;6.25;;
27804;SDS011;15183;51.350;11.102;2024-01-15T07:29:13;11.52;;;6.85;;
27804;SDS011;15183;51.350;11.102;2024-01-15T07:31:39;12.38;;;6.35;;
27804;SDS011;15183;51.350;11.102;2024-01-15T07:34:05;13.50;;;5.90;;
27804;SDS011;15183;51.350;11.102;2024-01-15T07:36:32;11.20;;;5.97;;
27804;SDS011;15183;51.350;11.102;2024-01-15T07:38:58;11.30;;;6.18;;
27804;SDS011;15183;51.350;11.102;2024-01-15T07:41:24;12.32;;;6.13;;
27804;SDS011;15183;51.350;11.102;2024-01-15T07:43:51;9.55;;;5.90;;
27804;SDS011;15183;51.350;11.102;2024-01-15T07:46:17;12.07;;;5.85;;
27804;SDS011;15183;51.350;11.102;2024-01-15T07:48:44;14.60;;;6.78;;
27804;SDS011;15183;51.350;11.102;2024-01-15T07:51:10;12.25;;;6.43;;
27804;SDS011;15183;51.350;11.102;2024-01-15T07:53:36;15.07;;;7.20;;
27804;SDS011;15183;51.350;11.102;2024-01-15T07:56:03;13.75;;;7.88;;
27804;SDS011;15183;51.350;11.102;2024-01-15T07:58:29;12.27;;;6.88;;
27804;SDS011;15183;51.350;11.102;2024-01-15T08:00:56;13.85;;;6.78;;
27804;SDS011;15183;51.350;11.102;2024-01-15T08:03:22;10.98;;;5.95;;
27804;SDS011;15183;51.350;11.102;2024-01-15T08:05:48;11.75;;;6.05;;
27804;SDS011;15183;51.350;11.102;2024-01-15T08:08:18;13.02;;;6.95;;
27804;SDS011;15183;51.350;11.102;2024-01-15T08:10:44;17.30;;;7.22;;
27804;SDS011;15183;51.350;11.102;2024-01-15T08:13:10;13.20;;;6.43;;
27804;SDS011;15183;51.350;11.102;2024-01-15T08:15:37;12.45;;;6.38;;
27804;SDS011;15183;51.350;11.102;2024-01-15T08:18:03;13.02;;;6.75;;
27804;SDS011;15183;51.350;11.102;2024-01-15T08:20:30;13.27;;;6.85;;
27804;SDS011;15183;51.350;11.102;2024-01-15T08:22:56;12.25;;;6.63;;
27804;SDS011;15183;51.350;11.102;2024-01-15T08:25:23;12.40;;;5.45;;
27804;SDS011;15183;51.350;11.102;2024-01-15T08:27:49;19.40;;;6.50;;
27804;SDS011;15183;51.350;11.102;2024-01-15T08:30:15;9.45;;;5.53;;
27804;SDS011;15183;51.350;11.102;2024-01-15T08:32:42;9.60;;;6.00;;
27804;SDS011;15183;51.350;11.102;2024-01-15T08:35:09;11.60;;;6.57;;
27804;SDS011;15183;51.350;11.102;2024-01-15T08:37:35;8.43;;;5.45;;
27804;SDS011;15183;51.350;11.102;2024-01-15T08:40:02;13.43;;;6.35;;
27804;SDS011;15183;51.350;11.102;2024-01-15T08:42:30;11.68;;;6.07;;
27804;SDS011;15183;51.350;11.102;2024-01-15T08:44:57;14.07;;;6.47;;
27804;SDS011;15183;51.350;11.102;2024-01-15T08:47:23;13.98;;;5.65;;
27804;SDS011;15183;51.350;11.102;2024-01-15T08:49:51;15.27;;;6.43;;
27804;SDS011;15183;51.350;11.102;2024-01-15T08:52:17;12.40;;;6.55;;
27804;SDS011;15183;51.350;11.102;2024-01-15T08:54:44;13.48;;;6.90;;
27804;SDS011;15183;51.350;11.102;2024-01-15T08:57:10;11.77;;;6.13;;
27804;SDS011;15183;51.350;11.102;2024-01-15T08:59:37;12.73;;;7.07;;
27804;SDS011;15183;51.350;11.102;2024-01-15T09:02:04;17.23;;;8.32;;
27804;SDS011;15183;51.350;11.102;2024-01-15T09:04:31;14.05;;;6.80;;
27804;SDS011;15183;51.350;11.102;2024-01-15T09:06:57;12.98;;;7.03;;
27804;SDS011;15183;51.350;11.102;2024-01-15T09:09:23;14.80;;;7.00;;
27804;SDS011;15183;51.350;11.102;2024-01-15T09:11:51;11.05;;;6.68;;
27804;SDS011;15183;51.350;11.102;2024-01-15T09:14:17;12.93;;;6.60;;
27804;SDS011;15183;51.350;11.102;2024-01-15T09:16:43;14.93;;;7.05;;
27804;SDS011;15183;51.350;11.102;2024-01-15T09:19:10;14.38;;;7.95;;
27804;SDS011;15183;51.350;11.102;2024-01-15T09:21:38;14.93;;;7.97;;
27804;SDS011;15183;51.350;11.102;2024-01-15T09:27:02;15.23;;;7.25;;
27804;SDS011;15183;51.350;11.102;2024-01-15T09:29:31;15.02;;;8.15;;
27804;SDS011;15183;51.350;11.102;2024-01-15T09:31:58;13.35;;;7.30;;
27804;SDS011;15183;51.350;11.102;2024-01-15T09:34:24;12.77;;;7.10;;
27804;SDS011;15183;51.350;11.102;2024-01-15T09:36:51;13.57;;;7.28;;
27804;SDS011;15183;51.350;11.102;2024-01-15T09:39:17;12.55;;;6.97;;
27804;SDS011;15183;51.350;11.102;2024-01-15T09:41:44;13.98;;;6.75;;
27804;SDS011;15183;51.350;11.102;2024-01-15T09:44:11;17.27;;;7.38;;
27804;SDS011;15183;51.350;11.102;2024-01-15T09:46:38;16.80;;;8.90;;
27804;SDS011;15183;51.350;11.102;2024-01-15T09:49:05;17.70;;;7.70;;
27804;SDS011;15183;51.350;11.102;2024-01-15T09:51:32;14.25;;;7.45;;
27804;SDS011;15183;51.350;11.102;2024-01-15T09:53:58;12.25;;;6.85;;
27804;SDS011;15183;51.350;11.102;2024-01-15T09:56:25;17.08;;;8.90;;
27804;SDS011;15183;51.350;11.102;2024-01-15T09:58:51;15.02;;;8.02;;
27804;SDS011;15183;51.350;11.102;2024-01-15T10:01:19;15.95;;;7.82;;
27804;SDS011;15183;51.350;11.102;2024-01-15T10:03:46;14.90;;;7.68;;
27804;SDS011;15183;51.350;11.102;2024-01-15T10:06:16;17.35;;;10.30;;
27804;SDS011;15183;51.350;11.102;2024-01-15T10:08:44;20.67;;;10.38;;
27804;SDS011;15183;51.350;11.102;2024-01-15T10:11:15;19.05;;;9.52;;
27804;SDS011;15183;51.350;11.102;2024-01-15T10:13:45;15.43;;;8.80;;
27804;SDS011;15183;51.350;11.102;2024-01-15T10:16:12;17.38;;;9.35;;
27804;SDS011;15183;51.350;11.102;2024-01-15T10:18:39;18.35;;;9.50;;
27804;SDS011;15183;51.350;11.102;2024-01-15T10:21:08;21.60;;;9.38;;
27804;SDS011;15183;51.350;11.102;2024-01-15T10:23:34;14.73;;;8.23;;
27804;SDS011;15183;51.350;11.102;2024-01-15T10:26:02;16.55;;;9.50;;
27804;SDS011;15183;51.350;11.102;2024-01-15T10:28:29;19.08;;;9.93;;
27804;SDS011;15183;51.350;11.102;2024-01-15T10:30:57;16.10;;;8.98;;
27804;SDS011;15183;51.350;11.102;2024-01-15T10:33:25;17.27;;;8.43;;
27804;SDS011;15183;51.350;11.102;2024-01-15T10:35:55;15.55;;;7.88;;
27804;SDS011;15183;51.350;11.102;2024-01-15T10:38:24;15.27;;;8.55;;
27804;SDS011;15183;51.350;11.102;2024-01-15T10:40:51;13.15;;;7.78;;
27804;SDS011;15183;51.350;11.102;2024-01-15T10:43:21;12.98;;;7.45;;
27804;SDS011;15183;51.350;11.102;2024-01-15T10:45:49;16.33;;;8.77;;
27804;SDS011;15183;51.350;11.102;2024-01-15T10:48:17;14.45;;;7.40;;
27804;SDS011;15183;51.350;11.102;2024-01-15T10:50:47;14.50;;;8.05;;
27804;SDS011;15183;51.350;11.102;2024-01-15T10:53:15;14.73;;;7.55;;
27804;SDS011;15183;51.350;11.102;2024-01-15T10:55:43;16.08;;;8.80;;
27804;SDS011;15183;51.350;11.102;2024-01-15T10:58:11;16.17;;;7.80;;
27804;SDS011;15183;51.350;11.102;2024-01-15T11:00:40;11.55;;;6.32;;
27804;SDS011;15183;51.350;11.102;2024-01-15T11:03:06;16.58;;;8.75;;
27804;SDS011;15183;51.350;11.102;2024-01-15T11:05:36;13.73;;;7.82;;
27804;SDS011;15183;51.350;11.102;2024-01-15T11:08:06;14.52;;;7.95;;
27804;SDS011;15183;51.350;11.102;2024-01-15T11:10:50;13.48;;;6.88;;
27804;SDS011;15183;51.350;11.102;2024-01-15T11:16:22;12.93;;;7.30;;
27804;SDS011;15183;51.350;11.102;2024-01-15T11:18:43;12.73;;;6.28;;
27804;SDS011;15183;51.350;11.102;2024-01-15T11:21:28;11.02;;;5.97;;
27804;SDS011;15183;51.350;11.102;2024-01-15T11:23:58;9.50;;;5.20;;
27804;SDS011;15183;51.350;11.102;2024-01-15T11:31:59;13.55;;;6.78;;
27804;SDS011;15183;51.350;11.102;2024-01-15T11:37:20;19.10;;;8.85;;
27804;SDS011;15183;51.350;11.102;2024-01-15T11:39:50;17.80;;;8.15;;
27804;SDS011;15183;51.350;11.102;2024-01-15T11:42:19;13.05;;;7.18;;
27804;SDS011;15183;51.350;11.102;2024-01-15T11:44:47;11.93;;;6.05;;
27804;SDS011;15183;51.350;11.102;2024-01-15T11:47:14;12.85;;;6.45;;
27804;SDS011;15183;51.350;11.102;2024-01-15T11:49:59;10.05;;;6.35;;
27804;SDS011;15183;51.350;11.102;2024-01-15T11:52:31;10.27;;;6.28;;
27804;SDS011;15183;51.350;11.102;2024-01-15T11:55:26;12.23;;;6.35;;
27804;SDS011;15183;51.350;11.102;2024-01-15T11:57:55;10.77;;;6.13;;
27804;SDS011;15183;51.350;11.102;2024-01-15T12:00:26;11.25;;;6.20;;
27804;SDS011;15183;51.350;11.102;2024-01-15T12:02:53;12.48;;;6.65;;
27804;SDS011;15183;51.350;11.102;2024-01-15T12:05:20;11.70;;;7.32;;
27804;SDS011;15183;51.350;11.102;2024-01-15T12:07:49;10.93;;;6.63;;
27804;SDS011;15183;51.350;11.102;2024-01-15T12:10:17;10.27;;;5.45;;
27804;SDS011;15183;51.350;11.102;2024-01-15T12:15:30;8.85;;;5.47;;
27804;SDS011;15183;51.350;11.102;2024-01-15T12:17:57;9.50;;;5.75;;
27804;SDS011;15183;51.350;11.102;2024-01-15T12:20:28;11.18;;;6.55;;
27804;SDS011;15183;51.350;11.102;2024-01-15T12:22:59;10.00;;;5.88;;
27804;SDS011;15183;51.350;11.102;2024-01-15T12:25:26;10.52;;;6.15;;
27804;SDS011;15183;51.350;11.102;2024-01-15T12:27:54;10.57;;;5.50;;
27804;SDS011;15183;51.350;11.102;2024-01-15T12:30:21;8.73;;;5.55;;
27804;SDS011;15183;51.350;11.102;2024-01-15T12:32:48;10.00;;;5.75;;
27804;SDS011;15183;51.350;11.102;2024-01-15T12:35:14;11.43;;;5.50;;
27804;SDS011;15183;51.350;11.102;2024-01-15T12:37:43;9.15;;;5.18;;
27804;SDS011;15183;51.350;11.102;2024-01-15T12:40:12;12.60;;;5.50;;
27804;SDS011;15183;51.350;11.102;2024-01-15T12:42:40;11.38;;;6.20;;
27804;SDS011;15183;51.350;11.102;2024-01-15T12:45:07;11.13;;;5.70;;
27804;SDS011;15183;51.350;11.102;2024-01-15T12:47:35;9.82;;;5.50;;
27804;SDS011;15183;51.350;11.102;2024-01-15T12:50:06;10.93;;;5.97;;
27804;SDS011;15183;51.350;11.102;2024-01-15T12:52:36;10.20;;;5.40;;
27804;SDS011;15183;51.350;11.102;2024-01-15T12:55:04;9.32;;;5.03;;
27804;SDS011;15183;51.350;11.102;2024-01-15T12:57:32;9.00;;;4.97;;
27804;SDS011;15183;51.350;11.102;2024-01-15T13:00:00;7.85;;;5.05;;
27804;SDS011;15183;51.350;11.102;2024-01-15T13:02:26;8.18;;;5.15;;
27804;SDS011;15183;51.350;11.102;2024-01-15T13:04:53;7.65;;;4.72;;
27804;SDS011;15183;51.350;11.102;2024-01-15T13:07:21;9.30;;;4.65;;
27804;SDS011;15183;51.350;11.102;2024-01-15T13:09:47;9.15;;;4.50;;
27804;SDS011;15183;51.350;11.102;2024-01-15T13:12:17;30.60;;;13.27;;
27804;SDS011;15183;51.350;11.102;2024-01-15T13:14:44;37.40;;;13.68;;
27804;SDS011;15183;51.350;11.102;2024-01-15T13:17:10;37.17;;;15.77;;
27804;SDS011;15183;51.350;11.102;2024-01-15T13:19:36;32.13;;;15.40;;
27804;SDS011;15183;51.350;11.102;2024-01-15T13:22:04;32.58;;;15.65;;
27804;SDS011;15183;51.350;11.102;2024-01-15T13:24:32;30.73;;;12.80;;
27804;SDS011;15183;51.350;11.102;2024-01-15T13:26:59;35.08;;;13.35;;
27804;SDS011;15183;51.350;11.102;2024-01-15T13:29:25;34.00;;;13.88;;
27804;SDS011;15183;51.350;11.102;2024-01-15T13:31:52;33.50;;;13.60;;
27804;SDS011;15183;51.350;11.102;2024-01-15T13:34:18;80.72;;;27.65;;
27804;SDS011;15183;51.350;11.102;2024-01-15T13:36:44;44.95;;;16.23;;
27804;SDS011;15183;51.350;11.102;2024-01-15T13:39:11;39.42;;;14.65;;
27804;SDS011;15183;51.350;11.102;2024-01-15T13:41:37;38.05;;;14.00;;
27804;SDS011;15183;51.350;11.102;2024-01-15T13:44:04;29.88;;;13.02;;
27804;SDS011;15183;51.350;11.102;2024-01-15T13:46:30;59.53;;;20.30;;
27804;SDS011;15183;51.350;11.102;2024-01-15T13:48:56;33.65;;;13.27;;
27804;SDS011;15183;51.350;11.102;2024-01-15T13:51:23;19.30;;;8.48;;
27804;SDS011;15183;51.350;11.102;2024-01-15T13:53:50;34.08;;;11.70;;
27804;SDS011;15183;51.350;11.102;2024-01-15T13:56:17;24.73;;;9.88;;
27804;SDS011;15183;51.350;11.102;2024-01-15T13:58:43;41.70;;;14.57;;
27804;SDS011;15183;51.350;11.102;2024-01-15T14:01:09;42.75;;;16.05;;
27804;SDS011;15183;51.350;11.102;2024-01-15T14:03:36;35.95;;;13.05;;
27804;SDS011;15183;51.350;11.102;2024-01-15T14:06:03;27.98;;;10.93;;
27804;SDS011;15183;51.350;11.102;2024-01-15T14:08:34;28.92;;;11.65;;
27804;SDS011;15183;51.350;11.102;2024-01-15T14:11:02;23.55;;;10.50;;
27804;SDS011;15183;51.350;11.102;2024-01-15T14:13:31;16.50;;;7.78;;
27804;SDS011;15183;51.350;11.102;2024-01-15T14:15:59;13.30;;;7.03;;
27804;SDS011;15183;51.350;11.102;2024-01-15T14:18:26;9.77;;;5.72;;
27804;SDS011;15183;51.350;11.102;2024-01-15T14:20:53;10.10;;;5.13;;
27804;SDS011;15183;51.350;11.102;2024-01-15T14:23:20;10.68;;;5.55;;
27804;SDS011;15183;51.350;11.102;2024-01-15T14:25:47;5.45;;;3.00;;
27804;SDS011;15183;51.350;11.102;2024-01-15T14:28:13;9.02;;;3.88;;
27804;SDS011;15183;51.350;11.102;2024-01-15T14:30:39;7.55;;;3.67;;
27804;SDS011;15183;51.350;11.102;2024-01-15T14:33:06;6.28;;;3.70;;
27804;SDS011;15183;51.350;11.102;2024-01-15T14:35:32;5.28;;;2.92;;
27804;SDS011;15183;51.350;11.102;2024-01-15T14:37:59;6.45;;;3.80;;
27804;SDS011;15183;51.350;11.102;2024-01-15T14:40:25;6.57;;;3.08;;